Time;durP1;ratioP1;P1;durP2;ratioP2;P2;SDS_P1;SDS_P2;PMS_P1;PMS_P2;Temp;Humidity;BMP_temperature;BMP_pressure;BME280_temperature;BME280_humidity;BME280_pressure;Samples;Min_cycle;Max_cycle;Signal;HPM_P1;HPM_P2
2021/12/29 00:00:19;;;;;;;12.50;5.50;;;;;;;2.64;77.05;99584.63;5307605;33;34475;-67
2021/12/29 00:03:23;;;;;;;11.13;5.50;;;;;;;3.48;74.26;99571.56;5301040;33;35150;-66
2021/12/29 00:06:26;;;;;;;12.63;5.10;;;;;;;3.61;72.50;99562.59;5316849;33;34398;-66
2021/12/29 00:09:32;;;;;;;11.80;5.62;;;;;;;2.81;78.15;99570.44;5297162;33;33983;-61
2021/12/29 00:12:41;;;;;;;11.30;5.37;;;;;;;3.58;72.64;99557.47;5315544;33;34811;-61
2021/12/29 00:15:44;;;;;;;12.10;6.40;;;;;;;4.45;68.71;99559.59;5308673;33;34138;-66
2021/12/29 00:18:47;;;;;;;12.23;5.70;;;;;;;3.63;71.63;99566.00;5340769;33;33694;-61
2021/12/29 00:21:51;;;;;;;11.10;5.45;;;;;;;4.32;69.89;99578.12;5343326;33;32889;-67
2021/12/29 00:24:56;;;;;;;11.87;6.33;;;;;;;3.26;74.17;99579.84;5339602;33;34036;-61
2021/12/29 00:28:03;;;;;;;13.73;6.37;;;;;;;3.44;73.28;99580.31;5353717;33;34184;-62
2021/12/29 00:31:06;;;;;;;13.73;6.23;;;;;;;3.19;74.20;99580.88;5320762;32;34753;-66
2021/12/29 00:34:15;;;;;;;13.17;6.20;;;;;;;2.38;77.63;99566.97;5365087;32;33132;-61
2021/12/29 00:37:25;;;;;;;14.13;6.63;;;;;;;2.40;77.99;99561.75;5365170;32;32791;-62
2021/12/29 00:40:32;;;;;;;12.67;6.23;;;;;;;2.82;76.51;99552.22;5348472;32;35507;-61
2021/12/29 00:43:37;;;;;;;13.00;6.30;;;;;;;2.55;77.74;99558.84;5379717;32;33735;-66
2021/12/29 00:46:41;;;;;;;12.83;6.27;;;;;;;2.81;78.49;99568.69;5366423;32;35615;-62
2021/12/29 00:49:47;;;;;;;13.87;6.40;;;;;;;3.20;75.81;99561.78;5367019;32;32975;-68
2021/12/29 00:52:53;;;;;;;14.80;6.50;;;;;;;2.11;80.38;99555.34;5400789;32;33571;-68
2021/12/29 00:55:56;;;;;;;13.32;6.53;;;;;;;2.58;78.76;99556.19;5367637;32;34680;-66
2021/12/29 00:59:01;;;;;;;12.63;6.73;;;;;;;2.71;77.85;99552.47;5367083;32;33683;-66
2021/12/29 01:02:05;;;;;;;11.73;5.55;;;;;;;3.19;77.02;99551.44;5360048;32;34313;-68
2021/12/29 01:05:10;;;;;;;13.55;6.32;;;;;;;3.06;76.68;99555.19;5385810;32;35508;-67
2021/12/29 01:08:21;;;;;;;13.90;6.40;;;;;;;3.35;75.33;99550.22;5360540;32;34097;-62
2021/12/29 01:11:34;;;;;;;14.57;7.00;;;;;;;3.30;75.47;99543.41;5392679;32;35246;-62
2021/12/29 01:14:51;;;;;;;13.43;6.83;;;;;;;3.80;74.11;99535.28;5355153;32;34434;-61
2021/12/29 01:17:59;;;;;;;13.00;6.63;;;;;;;2.99;76.10;99537.16;5383406;32;35117;-61
2021/12/29 01:21:03;;;;;;;13.40;6.37;;;;;;;2.95;77.20;99532.06;5377787;32;33961;-61
2021/12/29 01:24:11;;;;;;;13.88;6.65;;;;;;;3.44;74.78;99528.37;5383794;32;33910;-61
2021/12/29 01:27:15;;;;;;;12.33;6.43;;;;;;;3.40;75.63;99521.53;5359885;32;34364;-63
2021/12/29 01:30:21;;;;;;;15.18;7.57;;;;;;;3.79;74.88;99522.28;5381179;32;34115;-62
2021/12/29 01:33:30;;;;;;;14.77;6.87;;;;;;;2.67;76.38;99535.25;5368990;32;35054;-62
2021/12/29 01:36:36;;;;;;;15.13;6.73;;;;;;;2.90;78.57;99526.13;5349004;32;33946;-62
2021/12/29 01:39:38;;;;;;;13.80;6.90;;;;;;;3.03;77.05;99519.78;5371455;32;33731;-63
2021/12/29 01:42:43;;;;;;;14.47;7.53;;;;;;;2.93;76.63;99515.69;5361280;32;33995;-62
2021/12/29 01:45:47;;;;;;;15.60;7.35;;;;;;;3.01;77.06;99515.50;5374514;32;34098;-61
2021/12/29 01:48:51;;;;;;;14.50;6.93;;;;;;;3.40;75.22;99521.53;5379995;32;35272;-66
2021/12/29 01:52:11;;;;;;;16.83;7.10;;;;;;;4.61;69.51;99521.81;5365038;32;34018;-66
2021/12/29 01:55:15;;;;;;;17.00;7.50;;;;;;;4.46;69.56;99520.50;5395162;32;33480;-66
2021/12/29 01:58:22;;;;;;;15.10;7.03;;;;;;;4.45;69.70;99531.81;5384611;32;34052;-62
2021/12/29 02:01:30;;;;;;;16.13;7.93;;;;;;;4.78;67.36;99540.41;5341610;33;34471;-61
2021/12/29 02:04:36;;;;;;;16.93;7.97;;;;;;;3.63;70.34;99544.37;5360715;32;33795;-66
2021/12/29 02:07:40;;;;;;;17.50;8.33;;;;;;;2.90;75.14;99549.50;5333445;33;34716;-68
2021/12/29 02:10:45;;;;;;;16.52;8.40;;;;;;;3.45;73.78;99546.50;5334117;33;34066;-68
2021/12/29 02:13:48;;;;;;;18.20;8.83;;;;;;;3.85;72.88;99555.94;5332990;33;32778;-61
2021/12/29 02:16:55;;;;;;;16.10;8.57;;;;;;;3.94;72.23;99565.25;5341579;33;34500;-66
2021/12/29 02:20:05;;;;;;;19.37;9.40;;;;;;;2.94;77.50;99551.97;5327634;33;34203;-61
2021/12/29 02:23:17;;;;;;;17.83;9.37;;;;;;;2.64;79.36;99556.09;5334587;33;33560;-66
2021/12/29 02:26:21;;;;;;;19.33;9.67;;;;;;;2.73;78.46;99555.03;5342067;33;33048;-68
2021/12/29 02:29:29;;;;;;;18.55;9.45;;;;;;;2.30;80.04;99560.19;5334776;33;32704;-66
2021/12/29 02:32:32;;;;;;;21.77;10.13;;;;;;;2.33;80.35;99557.56;5325926;33;34744;-61
2021/12/29 02:35:47;;;;;;;21.10;10.03;;;;;;;2.61;78.85;99555.28;5329728;33;33614;-61
2021/12/29 02:38:54;;;;;;;25.77;10.70;;;;;;;2.13;80.98;99553.59;5332011;33;35300;-61
2021/12/29 02:42:04;;;;;;;22.93;10.57;;;;;;;2.69;79.49;99556.81;5340425;33;34410;-63
2021/12/29 02:45:14;;;;;;;23.90;11.80;;;;;;;2.63;79.85;99559.53;5347689;32;32894;-62
2021/12/29 02:48:19;;;;;;;24.57;10.50;;;;;;;2.26;80.60;99556.81;5374520;32;33829;-67
2021/12/29 02:51:22;;;;;;;21.48;9.75;;;;;;;2.50;80.15;99563.25;5367201;32;34510;-67
2021/12/29 02:54:25;;;;;;;24.80;11.13;;;;;;;2.81;80.25;99542.75;5353696;32;35166;-66
2021/12/29 02:57:32;;;;;;;25.10;11.07;;;;;;;2.56;79.96;99550.16;5375900;32;33842;-61
2021/12/29 03:00:37;;;;;;;28.67;11.47;;;;;;;2.89;78.31;99556.41;5370671;32;32702;-66
2021/12/29 03:03:40;;;;;;;24.43;10.27;;;;;;;3.12;78.47;99561.13;5362239;32;34299;-68
2021/12/29 03:06:42;;;;;;;28.17;11.55;;;;;;;3.55;75.31;99554.94;5358358;32;33049;-66
2021/12/29 03:09:50;;;;;;;25.63;10.30;;;;;;;2.10;80.73;99558.81;5350420;32;34083;-61
2021/12/29 03:12:54;;;;;;;24.23;10.37;;;;;;;2.29;81.90;99556.75;5351300;32;33246;-68
2021/12/29 03:15:58;;;;;;;27.90;11.98;;;;;;;2.29;82.17;99550.72;5374586;32;34825;-63
2021/12/29 03:19:04;;;;;;;27.43;12.13;;;;;;;2.06;81.58;99551.13;5361569;32;33921;-62
2021/12/29 03:22:07;;;;;;;27.80;11.20;;;;;;;2.96;78.97;99552.81;5389143;32;34602;-66
2021/12/29 03:25:10;;;;;;;31.63;11.13;;;;;;;4.14;73.43;99550.00;5378545;32;33054;-62
2021/12/29 03:28:13;;;;;;;29.50;11.40;;;;;;;3.13;76.85;99546.38;5391744;32;35160;-67
2021/12/29 03:31:21;;;;;;;30.27;12.07;;;;;;;2.19;81.89;99537.06;5345876;32;33079;-67
2021/12/29 03:34:28;;;;;;;30.93;12.40;;;;;;;2.50;80.57;99534.72;5379278;32;34076;-62
2021/12/29 03:37:34;;;;;;;33.03;12.50;;;;;;;3.33;77.13;99538.13;5378097;32;34604;-67
2021/12/29 03:40:41;;;;;;;31.20;12.60;;;;;;;2.37;80.60;99541.88;5379808;32;35182;-62
2021/12/29 03:43:44;;;;;;;27.20;11.53;;;;;;;2.17;82.23;99538.81;5380045;32;34373;-67
2021/12/29 03:46:48;;;;;;;33.00;11.73;;;;;;;1.85;83.23;99548.03;5368785;32;34516;-66
2021/12/29 03:49:57;;;;;;;32.33;12.30;;;;;;;2.15;82.04;99536.25;5375840;32;34340;-61
2021/12/29 03:53:05;;;;;;;28.40;12.27;;;;;;;3.39;78.67;99536.25;5366547;32;33313;-62
2021/12/29 03:56:17;;;;;;;27.93;11.47;;;;;;;4.09;72.56;99541.47;5353377;32;34558;-67
2021/12/29 03:59:22;;;;;;;27.57;11.80;;;;;;;3.94;74.36;99542.72;5367312;32;34804;-66
2021/12/29 04:02:36;;;;;;;27.07;12.07;;;;;;;4.08;73.03;99545.81;5381029;32;34454;-61
2021/12/29 04:05:54;;;;;;;25.33;10.90;;;;;;;4.28;70.89;99560.03;5355951;32;33723;-66
2021/12/29 04:08:56;;;;;;;30.30;11.40;;;;;;;3.35;73.35;99564.94;5378337;32;33960;-62
2021/12/29 04:12:07;;;;;;;31.37;12.00;;;;;;;2.83;78.42;99564.31;5376170;32;33766;-62
2021/12/29 04:15:12;;;;;;;33.47;13.57;;;;;;;2.41;81.12;99559.13;5383716;32;34395;-62
2021/12/29 04:18:30;;;;;;;38.30;13.47;;;;;;;2.39;81.50;99557.44;5377391;32;35907;-62
2021/12/29 04:21:35;;;;;;;34.22;13.38;;;;;;;2.44;80.83;99553.00;5371153;32;34224;-62
2021/12/29 04:24:45;;;;;;;34.50;13.90;;;;;;;2.84;79.91;99568.66;5382371;32;34588;-61
2021/12/29 04:27:48;;;;;;;37.13;14.00;;;;;;;2.17;81.48;99565.59;5360713;32;33083;-61
2021/12/29 04:31:02;;;;;;;35.30;13.57;;;;;;;2.69;81.03;99569.78;5386935;32;36167;-66
2021/12/29 04:34:06;;;;;;;37.77;13.77;;;;;;;3.26;79.01;99572.03;5376236;32;32887;-67
2021/12/29 04:37:09;;;;;;;38.77;15.33;;;;;;;3.39;77.60;99567.44;5362062;32;35207;-62
2021/12/29 04:40:18;;;;;;;43.07;14.73;;;;;;;3.67;74.89;99571.97;5360734;32;33186;-62
2021/12/29 04:43:24;;;;;;;39.77;15.73;;;;;;;2.76;78.10;99585.25;5375600;32;34137;-67
2021/12/29 04:46:38;;;;;;;40.22;14.52;;;;;;;2.82;80.44;99574.72;5385286;32;33927;-66
2021/12/29 04:49:42;;;;;;;38.67;14.33;;;;;;;2.75;79.46;99573.16;5351192;32;34145;-62
2021/12/29 04:52:49;;;;;;;43.90;16.57;;;;;;;3.12;78.23;99576.69;5378183;32;33922;-62
2021/12/29 04:55:55;;;;;;;43.13;15.17;;;;;;;3.98;74.72;99567.72;5365307;32;34047;-67
2021/12/29 04:58:57;;;;;;;37.13;13.47;;;;;;;4.02;75.28;99573.72;5359417;32;33860;-68
2021/12/29 05:02:01;;;;;;;38.60;15.67;;;;;;;3.56;75.29;99577.44;5380535;32;33931;-62
2021/12/29 05:05:20;;;;;;;35.27;13.97;;;;;;;3.13;77.11;99586.19;5354332;32;33619;-61
2021/12/29 05:08:29;;;;;;;34.93;14.40;;;;;;;2.71;78.73;99582.75;5406157;32;33914;-61
2021/12/29 05:11:34;;;;;;;35.57;13.77;;;;;;;2.98;78.53;99581.34;5345450;32;34640;-61
2021/12/29 05:14:37;;;;;;;37.20;14.47;;;;;;;2.92;80.04;99584.06;5381732;32;34711;-62
2021/12/29 05:17:43;;;;;;;31.27;12.87;;;;;;;3.52;75.96;99579.25;5383949;32;34907;-62
2021/12/29 05:20:48;;;;;;;37.77;13.63;;;;;;;2.03;81.93;99590.91;5356037;32;34245;-69
2021/12/29 05:23:50;;;;;;;35.17;14.23;;;;;;;3.35;78.45;99585.69;5369862;32;34927;-63
2021/12/29 05:26:57;;;;;;;32.57;13.53;;;;;;;3.00;78.35;99574.34;5370438;32;35746;-69
2021/12/29 05:30:02;;;;;;;32.45;13.52;;;;;;;2.81;80.80;99576.47;5392581;32;34098;-66
2021/12/29 05:33:09;;;;;;;34.57;13.83;;;;;;;2.71;80.00;99580.16;5380289;32;33383;-61
2021/12/29 05:36:17;;;;;;;35.50;14.00;;;;;;;2.74;78.48;99587.03;5354485;32;33320;-66
2021/12/29 05:39:22;;;;;;;30.00;12.40;;;;;;;2.60;80.59;99582.97;5369946;32;35098;-66
2021/12/29 05:42:39;;;;;;;37.93;13.57;;;;;;;2.65;81.83;99595.84;5359233;32;33929;-62
2021/12/29 05:45:49;;;;;;;32.77;13.53;;;;;;;3.18;77.15;99601.69;5355109;32;33616;-68
2021/12/29 05:48:51;;;;;;;32.85;13.02;;;;;;;2.40;81.18;99592.88;5374974;32;33134;-67
2021/12/29 05:51:55;;;;;;;;;;;;;;;3.68;76.61;99602.28;5382346;32;33648;-67
2021/12/29 05:54:57;;;;;;;37.87;13.37;;;;;;;2.95;78.19;99612.53;5386851;32;34360;-62
2021/12/29 05:58:06;;;;;;;28.40;11.97;;;;;;;2.75;78.87;99597.34;5387201;32;33076;-62
2021/12/29 06:01:09;;;;;;;31.40;12.60;;;;;;;2.69;80.78;99611.31;5369721;32;34980;-67
2021/12/29 06:04:12;;;;;;;;;;;;;;;2.25;80.46;99613.88;5387681;32;34068;-66
2021/12/29 06:07:18;;;;;;;33.43;12.97;;;;;;;1.58;83.00;99618.41;5377376;32;33062;-67
2021/12/29 06:10:22;;;;;;;36.20;13.10;;;;;;;1.50;84.27;99613.34;5348668;32;34297;-62
2021/12/29 06:13:30;;;;;;;32.87;12.80;;;;;;;2.69;81.15;99610.44;5351480;32;34141;-61
2021/12/29 06:16:33;;;;;;;35.07;12.23;;;;;;;1.79;83.13;99609.44;5352422;32;33773;-61
2021/12/29 06:19:38;;;;;;;29.87;12.73;;;;;;;2.30;82.60;99607.72;5386563;32;35159;-68
2021/12/29 06:22:48;;;;;;;30.90;11.80;;;;;;;3.15;78.71;99614.72;5366594;32;33923;-62
2021/12/29 06:25:57;;;;;;;;;;;;;;;3.50;76.26;99613.94;5369172;32;33770;-62
2021/12/29 06:29:08;;;;;;;25.60;11.53;;;;;;;3.24;77.67;99614.53;5392755;32;33339;-63
2021/12/29 06:32:14;;;;;;;23.63;10.70;;;;;;;3.26;74.58;99618.78;5384733;32;33288;-61
2021/12/29 06:35:16;;;;;;;23.87;11.30;;;;;;;3.24;77.31;99624.91;5354977;32;33063;-67
2021/12/29 06:38:19;;;;;;;24.47;10.93;;;;;;;2.30;79.18;99630.19;5394148;32;33968;-67
2021/12/29 06:41:22;;;;;;;25.87;10.87;;;;;;;2.64;77.74;99617.47;5357526;32;32967;-68
2021/12/29 06:44:27;;;;;;;25.67;11.77;;;;;;;2.45;80.17;99622.16;5378957;32;34018;-63
2021/12/29 06:47:34;;;;;;;25.40;11.43;;;;;;;2.63;78.57;99623.53;5356136;32;35018;-68
2021/12/29 06:50:36;;;;;;;23.40;9.63;;;;;;;2.52;79.76;99626.34;5366009;32;34784;-62
2021/12/29 06:53:41;;;;;;;23.20;10.82;;;;;;;2.36;78.88;99630.09;5369232;32;34446;-63
2021/12/29 06:56:45;;;;;;;24.47;12.17;;;;;;;3.12;77.06;99636.41;5335010;32;33782;-67
2021/12/29 06:59:49;;;;;;;21.60;10.70;;;;;;;3.10;76.55;99638.19;5386560;32;34143;-68
2021/12/29 07:02:57;;;;;;;23.27;11.57;;;;;;;2.92;76.63;99641.16;5364262;32;36279;-62
2021/12/29 07:06:04;;;;;;;27.47;12.93;;;;;;;2.42;78.15;99637.78;5360200;32;32815;-67
2021/12/29 07:09:13;;;;;;;24.77;12.00;;;;;;;2.89;78.10;99638.59;5366917;32;33303;-61
2021/12/29 07:12:19;;;;;;;21.30;10.60;;;;;;;2.80;77.64;99642.25;5347178;32;33854;-67
2021/12/29 07:15:28;;;;;;;19.23;9.80;;;;;;;2.83;76.80;99638.72;5371562;32;35013;-62
2021/12/29 07:18:37;;;;;;;19.90;9.57;;;;;;;3.42;74.29;99645.31;5353864;32;35712;-62
2021/12/29 07:21:48;;;;;;;21.50;10.77;;;;;;;3.04;75.46;99653.91;5359088;32;34801;-61
2021/12/29 07:24:57;;;;;;;23.90;11.60;;;;;;;3.43;75.27;99660.00;5375583;32;33947;-68
2021/12/29 07:28:03;;;;;;;;;;;;;;;2.93;76.18;99677.47;5399141;32;34978;-69
2021/12/29 07:31:06;;;;;;;28.23;11.05;;;;;;;2.40;78.94;99681.03;5397703;32;34368;-67
2021/12/29 07:34:11;;;;;;;24.83;11.30;;;;;;;2.82;78.57;99673.34;5365914;32;34198;-67
2021/12/29 07:37:15;;;;;;;19.27;9.25;;;;;;;2.49;78.27;99674.81;5389512;32;34968;-66
2021/12/29 07:40:18;;;;;;;20.97;9.73;;;;;;;2.33;79.07;99688.06;5347671;32;33814;-67
2021/12/29 07:43:21;;;;;;;21.80;10.07;;;;;;;1.73;81.52;99700.22;5378199;32;34706;-67
2021/12/29 07:46:32;;;;;;;26.47;11.33;;;;;;;2.39;80.42;99694.91;5362250;32;33925;-63
2021/12/29 07:49:37;;;;;;;36.50;16.37;;;;;;;3.21;76.15;99692.47;5346389;32;33429;-68
2021/12/29 07:52:43;;;;;;;24.40;11.77;;;;;;;3.49;75.48;99698.00;5378053;32;34446;-62
2021/12/29 07:55:50;;;;;;;22.87;11.50;;;;;;;2.37;79.30;99707.00;5364552;32;35098;-67
2021/12/29 07:59:00;;;;;;;23.77;11.57;;;;;;;2.70;78.55;99706.44;5377416;32;35982;-62
2021/12/29 08:02:05;;;;;;;31.00;13.50;;;;;;;2.84;76.93;99707.94;5365431;32;34004;-62
2021/12/29 08:05:12;;;;;;;25.70;12.87;;;;;;;3.56;74.32;99696.97;5344475;32;34640;-67
2021/12/29 08:08:21;;;;;;;23.67;10.93;;;;;;;2.68;78.19;99695.22;5368255;32;34472;-66
2021/12/29 08:11:35;;;;;;;25.95;11.43;;;;;;;2.69;77.49;99696.94;5359505;32;34577;-61
2021/12/29 08:14:41;;;;;;;25.03;11.43;;;;;;;3.82;73.01;99688.59;5381162;32;34023;-68
2021/12/29 08:17:53;;;;;;;27.00;11.80;;;;;;;4.03;73.32;99698.47;5374785;32;33840;-67
2021/12/29 08:20:57;;;;;;;26.93;11.63;;;;;;;4.66;70.25;99690.88;5394126;32;33463;-67
2021/12/29 08:24:03;;;;;;;24.33;11.17;;;;;;;3.69;75.15;99700.16;5384498;32;33689;-61
2021/12/29 08:27:06;;;;;;;25.40;12.10;;;;;;;5.09;67.18;99701.88;5377893;32;33174;-67
2021/12/29 08:30:12;;;;;;;23.47;10.90;;;;;;;4.88;68.14;99707.62;5369459;32;34372;-68
2021/12/29 08:33:16;;;;;;;23.62;11.85;;;;;;;3.82;72.71;99706.78;5355641;32;32644;-69
2021/12/29 08:36:21;;;;;;;24.60;12.00;;;;;;;4.33;69.74;99711.66;5386171;32;32249;-66
2021/12/29 08:39:25;;;;;;;26.90;12.13;;;;;;;3.13;76.72;99709.97;5368186;32;33944;-68
2021/12/29 08:42:29;;;;;;;22.87;10.90;;;;;;;3.36;75.98;99712.97;5386701;32;33839;-69
2021/12/29 08:45:42;;;;;;;23.73;11.70;;;;;;;4.25;72.21;99722.25;5397591;32;33972;-63
2021/12/29 08:48:46;;;;;;;22.33;10.90;;;;;;;4.08;72.51;99727.84;5372448;32;33995;-67
2021/12/29 08:51:50;;;;;;;24.58;11.80;;;;;;;4.67;71.33;99729.88;5394690;32;33490;-67
2021/12/29 08:54:54;;;;;;;24.17;10.83;;;;;;;4.23;71.82;99739.63;5377087;32;33370;-67
2021/12/29 08:57:59;;;;;;;25.73;12.47;;;;;;;4.60;70.25;99737.00;5376035;32;35686;-68
2021/12/29 09:01:20;;;;;;;25.17;12.80;;;;;;;4.10;73.32;99738.19;5378940;32;33712;-62
2021/12/29 09:04:34;;;;;;;26.70;12.27;;;;;;;4.67;71.47;99749.84;5372942;32;33812;-62
2021/12/29 09:07:38;;;;;;;26.00;12.67;;;;;;;5.27;69.18;99741.31;5382373;32;35104;-62
2021/12/29 09:10:41;;;;;;;;;;;;;;;4.57;71.07;99739.69;5386047;32;34068;-63
2021/12/29 09:13:49;;;;;;;25.00;12.90;;;;;;;4.14;73.71;99750.25;5384088;32;33754;-62
2021/12/29 09:16:54;;;;;;;23.83;11.37;;;;;;;5.38;70.53;99742.72;5388257;32;34986;-68
2021/12/29 09:20:01;;;;;;;25.80;12.33;;;;;;;4.41;72.69;99740.09;5380018;32;33905;-68
2021/12/29 09:23:08;;;;;;;26.07;14.53;;;;;;;4.87;72.89;99734.56;5387219;32;34134;-61
2021/12/29 09:26:14;;;;;;;22.60;10.97;;;;;;;4.82;71.65;99724.28;5364101;32;35581;-62
2021/12/29 09:29:17;;;;;;;23.57;12.80;;;;;;;5.69;68.62;99721.84;5368381;32;34775;-66
2021/12/29 09:32:20;;;;;;;19.83;11.23;;;;;;;6.02;66.63;99711.31;5375300;32;33166;-66
2021/12/29 09:35:24;;;;;;;21.67;10.90;;;;;;;6.53;63.31;99694.88;5368304;32;35315;-66
2021/12/29 09:38:38;;;;;;;23.03;12.10;;;;;;;7.41;60.84;99697.88;5394145;32;34270;-62
2021/12/29 09:41:42;;;;;;;22.87;11.33;;;;;;;7.40;59.39;99691.78;5363447;32;34870;-66
2021/12/29 09:44:46;;;;;;;25.23;13.77;;;;;;;7.04;61.22;99689.63;5374336;32;35056;-66
2021/12/29 09:47:50;;;;;;;25.30;12.10;;;;;;;7.84;59.13;99684.84;5382235;32;34283;-60
2021/12/29 09:50:53;;;;;;;32.53;13.47;;;;;;;7.62;60.35;99694.47;5381830;32;34887;-64
2021/12/29 09:53:55;;;;;;;29.92;13.55;;;;;;;6.06;67.11;99696.44;5386255;32;33372;-60
2021/12/29 09:57:00;;;;;;;25.87;14.13;;;;;;;7.19;63.83;99687.34;5392100;32;34191;-64
2021/12/29 10:00:09;;;;;;;24.60;14.00;;;;;;;6.36;65.63;99689.34;5368413;32;33875;-65
2021/12/29 10:03:17;;;;;;;27.57;14.43;;;;;;;5.63;70.48;99682.91;5380138;32;34543;-59
2021/12/29 10:06:19;;;;;;;24.30;13.60;;;;;;;6.81;65.68;99673.03;5389105;32;33997;-64
2021/12/29 10:09:22;;;;;;;27.93;13.73;;;;;;;6.00;68.52;99676.62;5365322;32;33856;-64
2021/12/29 10:12:27;;;;;;;25.83;13.43;;;;;;;5.39;70.25;99681.87;5342487;32;34473;-65
2021/12/29 10:15:40;;;;;;;28.50;14.10;;;;;;;6.96;63.93;99670.75;5381099;32;33911;-61
2021/12/29 10:18:44;;;;;;;25.23;13.57;;;;;;;7.30;62.89;99661.69;5388277;32;32853;-61
2021/12/29 10:21:49;;;;;;;26.52;14.45;;;;;;;7.24;62.15;99669.75;5387908;32;34252;-61
2021/12/29 10:25:07;;;;;;;25.00;14.73;;;;;;;7.46;62.24;99661.94;5350393;32;34027;-61
2021/12/29 10:28:43;;;;;;;27.10;14.47;;;;;;;6.85;63.34;99664.19;5357623;32;34120;-60
2021/12/29 10:31:52;;;;;;;23.70;13.60;;;;;;;6.93;64.60;99659.53;5362974;32;33407;-65
2021/12/29 10:34:55;;;;;;;26.10;14.37;;;;;;;6.83;65.40;99664.25;5371969;32;32753;-61
2021/12/29 10:38:12;;;;;;;27.35;14.65;;;;;;;7.09;64.69;99675.53;5357976;32;33865;-66
2021/12/29 10:41:15;;;;;;;24.30;14.33;;;;;;;5.86;67.95;99681.34;5397689;32;34030;-60
2021/12/29 10:44:30;;;;;;;26.57;14.77;;;;;;;6.83;64.83;99679.94;5376712;32;34770;-65
2021/12/29 10:47:37;;;;;;;27.97;15.27;;;;;;;6.42;66.13;99683.94;5378443;32;34078;-64
2021/12/29 10:50:41;;;;;;;29.23;16.13;;;;;;;7.07;63.63;99676.41;5376309;32;33611;-62
2021/12/29 10:53:46;;;;;;;28.13;15.43;;;;;;;6.84;65.16;99665.97;5366615;32;33824;-61
2021/12/29 10:57:04;;;;;;;28.43;15.67;;;;;;;6.84;65.07;99667.72;5371353;32;35246;-60
2021/12/29 11:00:17;;;;;;;27.53;13.67;;;;;;;6.71;66.15;99677.75;5378882;32;35495;-60
2021/12/29 11:03:22;;;;;;;33.17;15.07;;;;;;;7.15;63.81;99677.91;5391110;32;34770;-61
2021/12/29 11:06:27;;;;;;;27.90;15.37;;;;;;;7.17;63.30;99676.09;5378887;32;36015;-66
2021/12/29 11:09:35;;;;;;;25.65;14.48;;;;;;;7.45;61.21;99674.16;5365355;32;33777;-65
2021/12/29 11:12:56;;;;;;;27.80;15.33;;;;;;;6.16;66.34;99683.03;5357213;32;34122;-65
2021/12/29 11:16:06;;;;;;;32.13;15.50;;;;;;;5.90;67.80;99681.22;5393332;32;34666;-61
2021/12/29 11:19:10;;;;;;;28.10;15.20;;;;;;;6.93;64.83;99681.28;5380703;32;35019;-60
2021/12/29 11:22:16;;;;;;;32.77;16.97;;;;;;;6.23;68.41;99678.47;5382938;32;35837;-62
2021/12/29 11:25:29;;;;;;;41.43;17.87;;;;;;;5.64;71.71;99691.59;5387282;32;34659;-61
2021/12/29 11:28:34;;;;;;;36.08;18.55;;;;;;;5.90;70.63;99688.19;5356196;32;35127;-66
2021/12/29 11:31:44;;;;;;;31.93;16.93;;;;;;;6.38;69.39;99671.91;5389629;32;34878;-60
2021/12/29 11:35:08;;;;;;;33.20;16.90;;;;;;;6.82;65.81;99677.34;5392850;32;32869;-61
2021/12/29 11:38:14;;;;;;;34.57;16.90;;;;;;;6.27;68.33;99680.09;5388675;32;32761;-60
2021/12/29 11:41:23;;;;;;;37.20;16.47;;;;;;;5.42;71.47;99688.78;5387444;32;34135;-65
2021/12/29 11:44:27;;;;;;;35.60;17.87;;;;;;;5.33;72.78;99686.41;5364936;32;35170;-61
2021/12/29 11:47:30;;;;;;;35.23;16.70;;;;;;;5.46;72.88;99690.38;5382144;32;33880;-66
2021/12/29 11:50:35;;;;;;;37.43;16.83;;;;;;;4.39;78.29;99697.66;5367853;32;32901;-61
2021/12/29 11:53:55;;;;;;;37.27;18.20;;;;;;;4.68;75.64;99696.91;5376446;32;32783;-65
2021/12/29 11:57:12;;;;;;;35.03;16.17;;;;;;;5.45;74.01;99691.28;5388279;32;34183;-65
2021/12/29 12:00:19;;;;;;;32.83;15.43;;;;;;;5.76;70.84;99698.19;5374340;32;34035;-65
2021/12/29 12:03:36;;;;;;;32.13;14.53;;;;;;;4.85;75.67;99695.56;5375243;32;32975;-61
2021/12/29 12:06:45;;;;;;;35.43;16.10;;;;;;;5.73;70.78;99688.69;5385482;32;34792;-65
2021/12/29 12:09:49;;;;;;;37.90;17.37;;;;;;;5.40;72.17;99695.75;5368716;32;33933;-65
2021/12/29 12:12:54;;;;;;;34.67;16.73;;;;;;;4.45;75.87;99700.94;5384239;32;33140;-60
2021/12/29 12:16:15;;;;;;;35.10;16.90;;;;;;;4.77;77.51;99704.47;5375061;32;34603;-67
2021/12/29 12:19:21;;;;;;;33.83;16.73;;;;;;;5.80;71.94;99705.88;5373771;32;33216;-61
2021/12/29 12:22:28;;;;;;;32.60;15.93;;;;;;;5.94;71.69;99708.94;5378895;32;34030;-67
2021/12/29 12:25:32;;;;;;;36.03;16.30;;;;;;;5.99;71.11;99701.00;5367002;32;33308;-61
2021/12/29 12:28:45;;;;;;;36.53;17.62;;;;;;;5.61;72.00;99702.13;5397241;32;34019;-66
2021/12/29 12:32:16;;;;;;;33.77;16.50;;;;;;;4.74;76.39;99700.19;5366968;32;34753;-61
2021/12/29 12:35:32;;;;;;;34.73;17.00;;;;;;;5.06;76.47;99708.91;5352626;32;32765;-65
2021/12/29 12:38:36;;;;;;;37.23;17.67;;;;;;;6.02;71.20;99706.09;5382051;32;34329;-60
2021/12/29 12:41:39;;;;;;;;;;;;;;;5.47;72.21;99723.34;5380897;32;34228;-61
2021/12/29 12:44:42;;;;;;;50.97;24.57;;;;;;;4.75;76.44;99709.72;5376775;32;33435;-60
2021/12/29 12:48:04;;;;;;;37.27;19.10;;;;;;;4.94;76.31;99717.03;5368241;32;35113;-64
2021/12/29 12:51:17;;;;;;;40.67;18.83;;;;;;;5.94;71.52;99719.37;5378433;32;34439;-61
2021/12/29 12:54:22;;;;;;;35.40;16.43;;;;;;;5.95;71.44;99723.69;5369512;32;35400;-61
2021/12/29 12:57:27;;;;;;;42.77;19.10;;;;;;;5.65;72.11;99728.03;5369731;32;34847;-61
2021/12/29 13:00:29;;;;;;;;;;;;;;;5.24;73.66;99721.41;5384251;32;34045;-68
2021/12/29 13:03:34;;;;;;;37.37;17.43;;;;;;;5.46;73.64;99721.66;5398261;32;35275;-62
2021/12/29 13:06:37;;;;;;;35.70;16.17;;;;;;;5.62;72.61;99724.69;5378602;32;34707;-68
2021/12/29 13:09:50;;;;;;;38.10;17.13;;;;;;;5.76;72.45;99732.94;5379794;32;33131;-60
2021/12/29 13:12:58;;;;;;;41.47;17.70;;;;;;;5.86;72.20;99736.13;5372912;32;35072;-62
2021/12/29 13:16:14;;;;;;;35.87;16.77;;;;;;;5.44;73.49;99742.56;5388012;32;34541;-68
2021/12/29 13:19:25;;;;;;;38.20;17.50;;;;;;;5.49;72.50;99742.44;5375712;32;33695;-62
2021/12/29 13:22:35;;;;;;;35.03;15.23;;;;;;;5.87;72.68;99743.91;5384540;32;36910;-60
2021/12/29 13:25:40;;;;;;;32.60;15.60;;;;;;;5.46;72.87;99752.06;5355845;32;33420;-61
2021/12/29 13:28:43;;;;;;;35.47;16.53;;;;;;;5.33;74.33;99748.97;5367397;32;33265;-62
2021/12/29 13:31:46;;;;;;;32.43;15.67;;;;;;;5.51;75.50;99758.03;5399344;32;32533;-67
2021/12/29 13:35:07;;;;;;;34.20;16.10;;;;;;;5.69;72.75;99757.50;5378111;32;35364;-61
2021/12/29 13:38:19;;;;;;;39.17;15.80;;;;;;;5.76;73.15;99753.81;5389852;32;32923;-59
2021/12/29 13:41:33;;;;;;;35.67;16.53;;;;;;;5.95;72.04;99768.03;5378160;32;33092;-61
2021/12/29 13:44:37;;;;;;;32.37;16.03;;;;;;;5.79;73.53;99760.69;5364669;32;34975;-61
2021/12/29 13:47:49;;;;;;;33.13;17.20;;;;;;;6.15;71.35;99771.78;5387673;32;34177;-69
2021/12/29 13:51:06;;;;;;;36.10;17.67;;;;;;;5.68;74.56;99766.22;5366901;32;34443;-62
2021/12/29 13:54:17;;;;;;;32.33;15.43;;;;;;;5.81;74.50;99778.00;5365368;32;34972;-68
2021/12/29 13:57:23;;;;;;;30.90;14.63;;;;;;;5.67;75.89;99788.84;5391372;32;32764;-61
2021/12/29 14:00:35;;;;;;;33.60;14.87;;;;;;;6.74;69.31;99780.31;5362744;32;34308;-66
2021/12/29 14:03:38;;;;;;;31.17;15.00;;;;;;;6.26;70.32;99795.81;5396898;32;35832;-60
2021/12/29 14:06:46;;;;;;;33.58;14.68;;;;;;;6.27;70.92;99792.31;5346811;32;34205;-67
2021/12/29 14:09:58;;;;;;;33.23;15.67;;;;;;;6.30;70.55;99794.81;5387547;32;34855;-61
2021/12/29 14:13:09;;;;;;;32.10;14.90;;;;;;;5.72;73.42;99799.09;5360688;32;35462;-61
2021/12/29 14:16:15;;;;;;;31.80;15.50;;;;;;;5.98;72.24;99801.84;5376275;32;33631;-68
2021/12/29 14:19:26;;;;;;;35.00;15.90;;;;;;;6.09;73.00;99803.28;5369960;32;34132;-68
2021/12/29 14:22:31;;;;;;;32.87;14.97;;;;;;;6.08;72.31;99804.19;5384434;32;34138;-67
2021/12/29 14:25:38;;;;;;;33.17;14.87;;;;;;;5.65;74.64;99810.63;5388858;32;34117;-66
2021/12/29 14:28:40;;;;;;;28.87;15.43;;;;;;;6.08;73.09;99812.03;5383017;32;34548;-62
2021/12/29 14:31:53;;;;;;;29.43;13.47;;;;;;;6.86;69.53;99814.78;5356283;32;35062;-61
2021/12/29 14:34:56;;;;;;;26.87;13.13;;;;;;;6.89;67.76;99820.78;5381695;32;34000;-61